createdAt,value
2022-12-25T00:00:23.409Z,99887.73
2022-12-25T00:04:47.561Z,99887.92
2022-12-25T00:08:51.168Z,99895.54
2022-12-25T00:12:55.329Z,99890.45
2022-12-25T00:16:58.940Z,99897.25
2022-12-25T00:21:02.895Z,99889.58
2022-12-25T00:25:08.084Z,99894.16
2022-12-25T00:29:11.714Z,99890.76
2022-12-25T00:33:17.299Z,99887.24
2022-12-25T00:37:21.370Z,99882.98
2022-12-25T00:41:26.030Z,99878.73
2022-12-25T00:45:30.200Z,99883.73
2022-12-25T00:49:34.348Z,99889.61
2022-12-25T00:52:39.831Z,99895.73
2022-12-25T00:56:43.266Z,99902.20
2022-12-25T01:00:47.866Z,99913.14
2022-12-25T01:04:52.422Z,99916.65
2022-12-25T01:08:48.790Z,99922.20
2022-12-25T01:12:54.458Z,99917.74
2022-12-25T01:17:08.265Z,99919.81
2022-12-25T01:21:04.915Z,99922.23
2022-12-25T01:25:08.557Z,99920.34
2022-12-25T01:29:12.141Z,99924.83
2022-12-25T01:33:08.723Z,99929.94
2022-12-25T01:37:15.637Z,99927.16
2022-12-25T01:41:19.237Z,99930.30
2022-12-25T01:45:38.376Z,99942.15
2022-12-25T01:49:48.389Z,99933.20
2022-12-25T01:53:52.407Z,99935.21
2022-12-25T01:57:49.889Z,99938.85
2022-12-25T02:01:53.641Z,99936.39
2022-12-25T02:06:09.182Z,99933.70
2022-12-25T02:10:11.280Z,99937.11
2022-12-25T02:13:50.011Z,99940.45
2022-12-25T02:17:46.913Z,99942.62
2022-12-25T02:21:52.088Z,99942.54
2022-12-25T02:26:01.347Z,99948.87
2022-12-25T02:30:13.766Z,99953.33
2022-12-25T02:34:23.971Z,99960.25
2022-12-25T02:38:30.837Z,99963.01
2022-12-25T02:42:40.659Z,99961.64
2022-12-25T02:46:40.467Z,99971.50
2022-12-25T02:50:43.430Z,99975.23
2022-12-25T02:54:46.740Z,99975.63
2022-12-25T02:58:40.375Z,99981.40
2022-12-25T03:02:26.037Z,99980.23
2022-12-25T03:06:28.419Z,99982.14
2022-12-25T03:10:36.248Z,99983.19
2022-12-25T03:14:45.718Z,99983.52
2022-12-25T03:18:55.259Z,99991.05
2022-12-25T03:23:06.404Z,99999.70
2022-12-25T03:27:16.889Z,99995.55
2022-12-25T03:31:08.375Z,99998.51
2022-12-25T03:35:24.194Z,99992.27
2022-12-25T03:39:36.751Z,99994.30
2022-12-25T03:43:38.609Z,99992.83
2022-12-25T03:47:57.755Z,99996.61
2022-12-25T03:52:00.207Z,100004.36
2022-12-25T03:56:13.745Z,100010.29
2022-12-25T04:00:12.537Z,100020.21
2022-12-25T04:04:14.488Z,100014.52
2022-12-25T04:08:17.314Z,100014.45
2022-12-25T04:12:19.952Z,100015.20
2022-12-25T04:16:22.929Z,100011.02
2022-12-25T04:20:35.822Z,100018.56
2022-12-25T04:24:13.370Z,100023.98
2022-12-25T04:28:04.067Z,100028.48
2022-12-25T04:31:39.374Z,100028.42
2022-12-25T04:35:41.786Z,100026.17
2022-12-25T04:39:47.023Z,100030.37
2022-12-25T04:43:39.325Z,100036.06
2022-12-25T04:47:42.919Z,100039.59
2022-12-25T04:51:52.699Z,100046.50
2022-12-25T04:55:50.969Z,100055.86
2022-12-25T04:59:53.375Z,100053.95
2022-12-25T05:03:57.184Z,100065.28
2022-12-25T05:07:58.306Z,100063.79
2022-12-25T05:12:06.361Z,100069.38
2022-12-25T05:16:10.834Z,100069.05
2022-12-25T05:20:14.490Z,100067.62
2022-12-25T05:24:08.760Z,100070.98
2022-12-25T05:28:12.317Z,100083.48
2022-12-25T05:32:16.134Z,100084.16
2022-12-25T05:36:05.017Z,100084.71
2022-12-25T05:40:08.131Z,100085.98
2022-12-25T05:43:24.187Z,100084.66
2022-12-25T05:47:27.763Z,100088.91
2022-12-25T05:50:51.650Z,100088.75
2022-12-25T05:54:54.423Z,100091.89
2022-12-25T05:58:58.374Z,100093.80
2022-12-25T06:03:02.149Z,100098.89
2022-12-25T06:07:04.721Z,100106.08
2022-12-25T06:11:04.945Z,100104.23
2022-12-25T06:15:08.991Z,100098.14
2022-12-25T06:19:14.211Z,100101.15
2022-12-25T06:23:03.683Z,100109.79
2022-12-25T06:26:57.677Z,100114.83
2022-12-25T06:30:07.199Z,100107.77
2022-12-25T06:33:20.645Z,100109.64
2022-12-25T06:37:24.342Z,100111.92
2022-12-25T06:41:22.896Z,100118.92
2022-12-25T06:45:26.732Z,100120.05
2022-12-25T06:49:31.362Z,100105.61
2022-12-25T06:53:29.366Z,100110.27
2022-12-25T06:57:36.253Z,100106.27
2022-12-25T07:01:39.986Z,100105.29
2022-12-25T07:05:42.913Z,100104.40
2022-12-25T07:09:30.814Z,100099.70
2022-12-25T07:13:33.169Z,100107.92
2022-12-25T07:17:25.597Z,100109.65
2022-12-25T07:21:36.554Z,100119.05
2022-12-25T07:25:40.305Z,100116.55
2022-12-25T07:29:44.515Z,100116.89
2022-12-25T07:33:18.036Z,100121.26
2022-12-25T07:36:54.585Z,100116.92
2022-12-25T07:40:59.332Z,100116.80
2022-12-25T07:45:02.943Z,100111.07
2022-12-25T07:48:52.269Z,100112.79
2022-12-25T07:52:56.053Z,100121.62
2022-12-25T07:56:48.883Z,100137.86
2022-12-25T08:00:52.799Z,100144.00
2022-12-25T08:04:59.780Z,100161.17
2022-12-25T08:09:02.475Z,100164.14
2022-12-25T08:13:12.434Z,100160.41
2022-12-25T08:17:23.893Z,100163.02
2022-12-25T08:21:27.610Z,100169.11
2022-12-25T08:25:31.226Z,100159.06
2022-12-25T08:29:34.948Z,100153.58
2022-12-25T08:33:56.076Z,100164.48
2022-12-25T08:37:43.681Z,100166.49
2022-12-25T08:41:51.524Z,100173.00
2022-12-25T08:45:45.205Z,100179.33
2022-12-25T08:49:42.200Z,100179.75
2022-12-25T08:53:45.676Z,100172.73
2022-12-25T08:57:27.746Z,100174.73
2022-12-25T09:01:31.619Z,100178.87
2022-12-25T09:05:23.935Z,100190.88
2022-12-25T09:09:06.795Z,100193.50
2022-12-25T09:13:10.404Z,100189.39
2022-12-25T09:17:01.266Z,100174.94
2022-12-25T09:20:37.716Z,100178.23
2022-12-25T09:24:40.735Z,100176.80
2022-12-25T09:28:35.362Z,100173.48
2022-12-25T09:32:29.158Z,100172.23
2022-12-25T09:36:26.488Z,100166.40
2022-12-25T09:40:17.031Z,100161.73
2022-12-25T09:43:58.710Z,100159.02
2022-12-25T09:48:01.333Z,100155.08
2022-12-25T09:51:50.296Z,100145.50
2022-12-25T09:55:41.672Z,100129.09
2022-12-25T09:59:45.270Z,100126.23
2022-12-25T10:03:52.226Z,100120.20
2022-12-25T10:07:57.332Z,100108.74
2022-12-25T10:12:05.716Z,100105.95
2022-12-25T10:16:14.937Z,100102.90
2022-12-25T10:20:36.910Z,100094.88
2022-12-25T10:24:41.324Z,100097.30
2022-12-25T10:28:36.976Z,100098.42
2022-12-25T10:32:33.186Z,100089.15
2022-12-25T10:35:45.724Z,100089.47
2022-12-25T10:39:46.375Z,100093.16
2022-12-25T10:43:00.240Z,100094.79
2022-12-25T10:47:00.724Z,100094.55
2022-12-25T10:51:07.780Z,100103.48
2022-12-25T10:55:29.352Z,100101.86
2022-12-25T10:59:33.383Z,100107.17
2022-12-25T11:03:37.526Z,100104.63
2022-12-25T11:07:53.704Z,100094.10
2022-12-25T11:11:57.797Z,100080.52
2022-12-25T11:16:04.297Z,100066.13
2022-12-25T11:20:20.142Z,100066.69
2022-12-25T11:24:03.262Z,100059.98
2022-12-25T11:28:07.395Z,100053.49
2022-12-25T11:32:11.135Z,100046.98
2022-12-25T11:36:11.041Z,100047.02
2022-12-25T11:40:23.839Z,100046.45
2022-12-25T11:44:28.095Z,100047.27
2022-12-25T11:48:32.138Z,100049.48
2022-12-25T11:52:21.973Z,100054.36
2022-12-25T11:55:49.610Z,100049.95
2022-12-25T11:59:53.213Z,100049.59
2022-12-25T12:03:35.844Z,100049.31
2022-12-25T12:08:04.916Z,100048.25
2022-12-25T12:11:52.840Z,100047.39
2022-12-25T12:16:06.070Z,100039.50
2022-12-25T12:20:07.651Z,100046.27
2022-12-25T12:23:39.946Z,100046.27
2022-12-25T12:27:41.097Z,100045.08
2022-12-25T12:31:35.436Z,100030.10
2022-12-25T12:35:54.551Z,100021.54
2022-12-25T12:39:51.618Z,99997.00
2022-12-25T12:43:47.109Z,99982.38
2022-12-25T12:47:50.686Z,99974.98
2022-12-25T12:52:09.976Z,99994.74
2022-12-25T12:56:12.894Z,99985.14
2022-12-25T13:00:17.232Z,99998.46
2022-12-25T13:04:39.574Z,100008.42
2022-12-25T13:08:49.287Z,99995.94
2022-12-25T13:12:37.689Z,99983.54
2022-12-25T13:16:41.832Z,99977.65
2022-12-25T13:20:57.191Z,99966.48
2022-12-25T13:24:49.460Z,99956.83
2022-12-25T13:28:54.731Z,99973.80
2022-12-25T13:32:57.895Z,99965.59
2022-12-25T13:36:54.607Z,99971.26
2022-12-25T13:41:04.096Z,99978.23
2022-12-25T13:45:07.715Z,99981.81
2022-12-25T13:49:11.349Z,99988.67
2022-12-25T13:53:10.770Z,99982.28
2022-12-25T13:57:12.142Z,99989.10
2022-12-25T14:01:19.026Z,99978.73
2022-12-25T14:05:22.705Z,99980.99
2022-12-25T14:09:26.724Z,99988.27
2022-12-25T14:13:30.409Z,99983.44
2022-12-25T14:17:34.109Z,99984.14
2022-12-25T14:21:40.524Z,99973.75
2022-12-25T14:25:49.320Z,99969.98
2022-12-25T14:29:54.521Z,99965.61
2022-12-25T14:33:58.711Z,99974.25
2022-12-25T14:38:00.040Z,99969.45
2022-12-25T14:41:55.541Z,99972.98
2022-12-25T14:46:14.031Z,99967.25
2022-12-25T14:50:19.161Z,99972.08
2022-12-25T14:54:28.621Z,99973.23
2022-12-25T14:58:42.549Z,99957.38
2022-12-25T15:02:38.962Z,99942.61
2022-12-25T15:06:58.164Z,99919.79
2022-12-25T15:11:01.189Z,99920.39
2022-12-25T15:15:14.363Z,99942.48
2022-12-25T15:18:45.649Z,99940.17
2022-12-25T15:22:47.693Z,99938.59
2022-12-25T15:27:06.658Z,99941.13
2022-12-25T15:30:56.849Z,99927.59
2022-12-25T15:34:50.287Z,99908.95
2022-12-25T15:38:27.975Z,99907.41
2022-12-25T15:42:33.191Z,99917.00
2022-12-25T15:46:36.703Z,99922.59
2022-12-25T15:50:06.111Z,99924.17
2022-12-25T15:53:55.772Z,99913.60
2022-12-25T15:58:02.194Z,99902.85
2022-12-25T16:02:07.477Z,99891.98
2022-12-25T16:06:11.121Z,99893.04
2022-12-25T16:10:11.488Z,99870.71
2022-12-25T16:14:08.034Z,99865.75
2022-12-25T16:18:14.746Z,99885.88
2022-12-25T16:22:14.790Z,99886.98
2022-12-25T16:26:18.394Z,99881.38
2022-12-25T16:30:14.585Z,99879.21
2022-12-25T16:34:00.466Z,99849.00
2022-12-25T16:38:05.805Z,99829.60
2022-12-25T16:42:01.491Z,99821.67
2022-12-25T16:45:43.419Z,99830.11
2022-12-25T16:49:46.986Z,99833.45
2022-12-25T16:53:15.014Z,99823.77
2022-12-25T16:56:51.926Z,99818.66
2022-12-25T17:00:19.632Z,99809.01
2022-12-25T17:04:02.202Z,99799.89
2022-12-25T17:07:51.287Z,99802.36
2022-12-25T17:11:30.460Z,99800.14
2022-12-25T17:15:01.795Z,99799.36
2022-12-25T17:18:35.023Z,99796.98
2022-12-25T17:21:59.815Z,99798.38
2022-12-25T17:25:42.021Z,99806.09
2022-12-25T17:30:15.419Z,99808.79
2022-12-25T17:33:58.689Z,99789.95
2022-12-25T17:37:20.563Z,99777.98
2022-12-25T17:40:56.952Z,99777.13
2022-12-25T17:44:57.738Z,99764.11
2022-12-25T17:48:32.439Z,99758.27
2022-12-25T17:52:02.904Z,99762.20
2022-12-25T17:55:38.255Z,99759.55
2022-12-25T17:59:00.587Z,99755.90
2022-12-25T18:02:47.152Z,99754.05
2022-12-25T18:06:35.846Z,99749.58
2022-12-25T18:10:14.965Z,99747.73
2022-12-25T18:13:44.817Z,99742.52
2022-12-25T18:17:42.453Z,99744.50
2022-12-25T18:21:08.036Z,99735.55
2022-12-25T18:25:02.506Z,99732.59
2022-12-25T18:28:17.515Z,99736.85
2022-12-25T18:31:55.813Z,99729.35
2022-12-25T18:35:31.129Z,99711.48
2022-12-25T18:39:08.875Z,99694.34
2022-12-25T18:43:05.468Z,99686.35
2022-12-25T18:46:48.626Z,99672.64
2022-12-25T18:50:42.121Z,99667.63
2022-12-25T18:54:28.629Z,99665.27
2022-12-25T18:57:41.014Z,99659.08
2022-12-25T19:01:51.262Z,99645.64
2022-12-25T19:05:57.854Z,99632.11
2022-12-25T19:10:18.334Z,99617.46
2022-12-25T19:13:52.469Z,99616.39
2022-12-25T19:17:40.179Z,99615.12
2022-12-25T19:21:06.489Z,99600.91
2022-12-25T19:24:52.859Z,99597.84
2022-12-25T19:28:27.885Z,99604.14
2022-12-25T19:32:24.176Z,99597.05
2022-12-25T19:36:08.828Z,99592.13
2022-12-25T19:40:08.047Z,99587.50
2022-12-25T19:43:55.060Z,99578.84
2022-12-25T19:47:37.612Z,99579.91
2022-12-25T19:51:35.973Z,99582.88
2022-12-25T19:55:22.657Z,99573.44
2022-12-25T19:59:10.333Z,99559.63
2022-12-25T20:03:03.405Z,99545.23
2022-12-25T20:06:38.906Z,99552.33
2022-12-25T20:10:34.641Z,99557.92
2022-12-25T20:14:10.557Z,99569.86
2022-12-25T20:17:38.582Z,99579.41
2022-12-25T20:21:26.928Z,99573.25
2022-12-25T20:25:13.912Z,99551.88
2022-12-25T20:28:28.522Z,99540.33
2022-12-25T20:32:17.717Z,99542.88
2022-12-25T20:36:01.209Z,99538.41
2022-12-25T20:39:42.347Z,99532.30
2022-12-25T20:43:45.880Z,99527.23
2022-12-25T20:47:22.988Z,99521.79
2022-12-25T20:51:18.003Z,99512.12
2022-12-25T20:55:20.792Z,99514.75
2022-12-25T20:58:57.220Z,99526.67
2022-12-25T21:03:00.982Z,99516.27
2022-12-25T21:06:42.883Z,99507.11
2022-12-25T21:10:16.021Z,99500.52
2022-12-25T21:14:08.355Z,99491.17
2022-12-25T21:18:05.406Z,99494.46
2022-12-25T21:21:47.114Z,99485.38
2022-12-25T21:25:20.926Z,99476.09
2022-12-25T21:29:00.900Z,99461.19
2022-12-25T21:32:37.969Z,99451.63
2022-12-25T21:36:38.298Z,99449.00
2022-12-25T21:40:34.741Z,99447.53
2022-12-25T21:44:23.713Z,99449.95
2022-12-25T21:47:59.960Z,99452.08
2022-12-25T21:52:14.809Z,99457.59
2022-12-25T21:55:39.628Z,99449.09
2022-12-25T21:59:37.027Z,99455.14
2022-12-25T22:03:23.871Z,99439.48
2022-12-25T22:07:02.752Z,99432.54
2022-12-25T22:10:40.909Z,99424.13
2022-12-25T22:14:17.420Z,99430.41
2022-12-25T22:18:10.970Z,99431.32
2022-12-25T22:22:18.070Z,99431.02
2022-12-25T22:26:21.221Z,99438.63
2022-12-25T22:30:12.536Z,99432.15
2022-12-25T22:34:14.119Z,99429.80
2022-12-25T22:38:09.016Z,99427.69
2022-12-25T22:42:05.146Z,99424.39
2022-12-25T22:45:54.406Z,99403.53
2022-12-25T22:49:42.889Z,99402.79
2022-12-25T22:53:38.851Z,99400.66
2022-12-25T22:57:42.464Z,99397.79
2022-12-25T23:01:38.761Z,99392.56
2022-12-25T23:05:43.670Z,99383.15
2022-12-25T23:09:04.012Z,99398.98
2022-12-25T23:12:47.954Z,99406.25
2022-12-25T23:16:43.994Z,99398.92
2022-12-25T23:20:46.594Z,99385.57
2022-12-25T23:24:33.135Z,99370.38
2022-12-25T23:28:19.411Z,99373.27
2022-12-25T23:32:17.665Z,99366.20
2022-12-25T23:36:13.614Z,99376.77
2022-12-25T23:40:16.934Z,99363.89
2022-12-25T23:44:19.165Z,99359.60
2022-12-25T23:47:43.088Z,99363.45
2022-12-25T23:51:45.343Z,99363.11
2022-12-25T23:55:55.093Z,99345.21
2022-12-25T23:59:59.824Z,99353.92
